createdAt,value
2018-06-01T00:00:29.529Z,50.84
2018-06-01T00:01:10.112Z,50.26
2018-06-01T00:01:50.685Z,50.35
2018-06-01T00:02:31.273Z,50.65
2018-06-01T00:03:11.832Z,50.26
2018-06-01T00:03:52.404Z,49.87
2018-06-01T00:04:32.967Z,50.07
2018-06-01T00:05:13.509Z,49.97
2018-06-01T00:05:54.072Z,49.77
2018-06-01T00:06:34.644Z,49.77
2018-06-01T00:07:15.174Z,50.24
2018-06-01T00:07:55.728Z,50.35
2018-06-01T00:08:36.299Z,50.55
2018-06-01T00:09:16.916Z,50.35
2018-06-01T00:09:57.432Z,50.65
2018-06-01T00:10:38.052Z,50.55
2018-06-01T00:11:18.617Z,50.62
2018-06-01T00:11:59.233Z,50.92
2018-06-01T00:12:39.813Z,50.84
2018-06-01T00:13:20.392Z,50.72
2018-06-01T00:14:00.942Z,50.94
2018-06-01T00:14:41.530Z,51.32
2018-06-01T00:15:22.167Z,51.04
2018-06-01T00:16:02.715Z,50.74
2018-06-01T00:16:43.324Z,50.74
2018-06-01T00:17:23.866Z,50.74
2018-06-01T00:18:04.421Z,50.65
2018-06-01T00:18:45.001Z,50.84
2018-06-01T00:19:25.575Z,50.24
2018-06-01T00:20:06.124Z,50.04
2018-06-01T00:20:46.668Z,50.43
2018-06-01T00:21:27.230Z,50.74
2018-06-01T00:22:07.807Z,50.72
2018-06-01T00:22:48.357Z,50.92
2018-06-01T00:23:28.948Z,51.01
2018-06-01T00:24:09.502Z,51.01
2018-06-01T00:24:50.052Z,50.92
2018-06-01T00:25:30.629Z,50.62
2018-06-01T00:26:11.182Z,51.01
2018-06-01T00:26:51.740Z,50.92
2018-06-01T00:27:32.307Z,51.01
2018-06-01T00:28:12.833Z,51.1
2018-06-01T00:28:53.380Z,51.01
2018-06-01T00:29:33.945Z,50.62
2018-06-01T00:30:14.516Z,51.01
2018-06-01T00:30:55.101Z,51.5
2018-06-01T00:31:35.659Z,51.5
2018-06-01T00:32:16.223Z,51.01
2018-06-01T00:32:56.845Z,51.01
2018-06-01T00:33:37.412Z,51.01
2018-06-01T00:34:17.974Z,51.2
2018-06-01T00:34:58.549Z,50.92
2018-06-01T00:35:39.102Z,50.92
2018-06-01T00:36:19.656Z,50.72
2018-06-01T00:37:00.207Z,50.62
2018-06-01T00:37:40.763Z,51.01
2018-06-01T00:38:21.323Z,51.01
2018-06-01T00:39:01.881Z,51.01
2018-06-01T00:39:42.417Z,50.92
2018-06-01T00:40:22.978Z,51.78
2018-06-01T00:41:03.563Z,51.2
2018-06-01T00:41:44.130Z,50.98
2018-06-01T00:42:24.706Z,51.5
2018-06-01T00:43:05.241Z,51.78
2018-06-01T00:43:45.801Z,51.98
2018-06-01T00:44:26.390Z,51.68
2018-06-01T00:45:06.897Z,51.95
2018-06-01T00:45:47.454Z,51.78
2018-06-01T00:46:28.004Z,51.68
2018-06-01T00:47:08.662Z,52.34
2018-06-01T00:47:49.225Z,52.44
2018-06-01T00:48:29.784Z,52.53
2018-06-01T00:49:10.336Z,52.05
2018-06-01T00:49:50.900Z,51.86
2018-06-01T00:50:31.465Z,51.76
2018-06-01T00:51:12.019Z,51.76
2018-06-01T00:51:52.580Z,51.86
2018-06-01T00:52:33.151Z,51.95
2018-06-01T00:53:13.715Z,51.76
2018-06-01T00:53:54.296Z,51.98
2018-06-01T00:54:34.810Z,52.53
2018-06-01T00:55:15.374Z,52.44
2018-06-01T00:55:55.955Z,52.46
2018-06-01T00:56:36.527Z,51.95
2018-06-01T00:57:17.099Z,52.27
2018-06-01T00:57:57.645Z,52.56
2018-06-01T00:58:38.234Z,52.34
2018-06-01T00:59:18.787Z,52.53
2018-06-01T00:59:59.377Z,51.76
2018-06-01T01:00:39.928Z,51.76
2018-06-01T01:01:20.499Z,51.78
2018-06-01T01:02:01.101Z,51.66
2018-06-01T01:02:41.617Z,51.88
2018-06-01T01:03:22.164Z,51.76
2018-06-01T01:04:02.718Z,51.86
2018-06-01T01:04:43.303Z,51.86
2018-06-01T01:05:24.473Z,51.56
2018-06-01T01:06:05.077Z,51.76
2018-06-01T01:06:45.669Z,51.86
2018-06-01T01:07:26.273Z,51.66
2018-06-01T01:08:06.876Z,51.86
2018-06-01T01:08:47.466Z,52.44
2018-06-01T01:09:28.038Z,52.73
2018-06-01T01:10:08.592Z,52.73
2018-06-01T01:10:49.166Z,52.44
2018-06-01T01:11:29.785Z,52.53
2018-06-01T01:12:10.348Z,52.92
2018-06-01T01:12:50.899Z,53.5
2018-06-01T01:13:31.458Z,53.11
2018-06-01T01:14:12.035Z,53.59
2018-06-01T01:14:52.580Z,53.5
2018-06-01T01:15:33.215Z,53.5
2018-06-01T01:16:13.789Z,53.5
2018-06-01T01:16:54.338Z,53.59
2018-06-01T01:17:34.889Z,53.89
2018-06-01T01:18:15.448Z,53.11
2018-06-01T01:18:56.017Z,53.79
2018-06-01T01:19:36.582Z,53.59
2018-06-01T01:20:17.125Z,53.41
2018-06-01T01:20:57.717Z,53.59
2018-06-01T01:21:38.290Z,53.5
2018-06-01T01:22:18.876Z,53.59
2018-06-01T01:22:59.469Z,53.41
2018-06-01T01:23:40.016Z,53.41
2018-06-01T01:24:20.609Z,53.69
2018-06-01T01:25:01.162Z,53.89
2018-06-01T01:25:41.739Z,53.79
2018-06-01T01:26:22.293Z,53.77
2018-06-01T01:27:02.838Z,53.99
2018-06-01T01:27:43.429Z,53.79
2018-06-01T01:28:24.012Z,53.67
2018-06-01T01:29:04.622Z,53.69
2018-06-01T01:29:45.167Z,54.15
2018-06-01T01:30:25.765Z,54.17
2018-06-01T01:31:06.337Z,54.15
2018-06-01T01:31:46.911Z,54.35
2018-06-01T01:32:27.500Z,54.63
2018-06-01T01:33:08.052Z,54.63
2018-06-01T01:33:48.606Z,54.83
2018-06-01T01:34:29.162Z,55.11
2018-06-01T01:35:09.733Z,55.02
2018-06-01T01:35:50.394Z,54.83
2018-06-01T01:36:30.963Z,55.11
2018-06-01T01:37:11.537Z,55.6
2018-06-01T01:37:52.165Z,55.7
2018-06-01T01:38:32.752Z,55.7
2018-06-01T01:39:13.330Z,56.09
2018-06-01T01:39:53.870Z,56.28
2018-06-01T01:40:34.440Z,56.76
2018-06-01T01:41:15.013Z,56.76
2018-06-01T01:41:55.574Z,56.95
2018-06-01T01:42:36.159Z,57.05
2018-06-01T01:43:16.729Z,57.15
2018-06-01T01:43:57.274Z,57.34
2018-06-01T01:44:37.853Z,57.44
2018-06-01T01:45:18.421Z,58.02
2018-06-01T01:45:58.980Z,57.73
2018-06-01T01:46:39.547Z,57.92
2018-06-01T01:47:20.119Z,57.82
2018-06-01T01:48:00.682Z,58.12
2018-06-01T01:48:41.301Z,58.12
2018-06-01T01:49:21.864Z,57.82
2018-06-01T01:50:02.415Z,57.92
2018-06-01T01:50:42.956Z,58.12
2018-06-01T01:51:23.518Z,58.37
2018-06-01T01:52:04.137Z,58.6
2018-06-01T01:52:44.702Z,58.8
2018-06-01T01:53:25.266Z,59.05
2018-06-01T01:54:05.824Z,58.76
2018-06-01T01:54:46.401Z,58.86
2018-06-01T01:55:27.033Z,59.44
2018-06-01T01:56:07.568Z,59.34
2018-06-01T01:56:48.128Z,59.34
2018-06-01T01:57:28.690Z,60.02
2018-06-01T01:58:09.251Z,59.73
2018-06-01T01:58:49.812Z,60.02
2018-06-01T01:59:30.367Z,59.83
2018-06-01T02:00:10.943Z,60.41
2018-06-01T02:00:51.522Z,60.31
2018-06-01T02:01:32.060Z,60.69
2018-06-01T02:02:12.628Z,60.89
2018-06-01T02:02:53.250Z,60.6
2018-06-01T02:03:33.838Z,60.99
2018-06-01T02:04:14.420Z,60.99
2018-06-01T02:04:54.969Z,61.37
2018-06-01T02:05:35.532Z,61.08
2018-06-01T02:06:16.120Z,60.96
2018-06-01T02:06:56.696Z,60.76
2018-06-01T02:07:37.255Z,61.44
2018-06-01T02:08:17.831Z,61.27
2018-06-01T02:08:58.392Z,61.34
2018-06-01T02:09:38.973Z,61.15
2018-06-01T02:10:19.546Z,61.54
2018-06-01T02:11:00.096Z,61.73
2018-06-01T02:11:40.676Z,61.73
2018-06-01T02:12:21.236Z,61.54
2018-06-01T02:13:01.834Z,61.54
2018-06-01T02:13:42.434Z,61.83
2018-06-01T02:14:23.005Z,62.31
2018-06-01T02:15:03.660Z,62.31
2018-06-01T02:15:44.245Z,62.31
2018-06-01T02:16:24.800Z,62.5
2018-06-01T02:17:05.338Z,62.4
2018-06-01T02:17:45.917Z,62.7
2018-06-01T02:18:26.497Z,62.7
2018-06-01T02:19:07.068Z,62.6
2018-06-01T02:19:47.634Z,62.79
2018-06-01T02:20:28.227Z,62.89
2018-06-01T02:21:08.791Z,62.7
2018-06-01T02:21:49.343Z,62.6
2018-06-01T02:22:29.934Z,63.08
2018-06-01T02:23:10.475Z,62.98
2018-06-01T02:23:51.072Z,63.18
2018-06-01T02:24:31.675Z,62.89
2018-06-01T02:25:12.226Z,63.08
2018-06-01T02:25:52.811Z,62.79
2018-06-01T02:26:33.370Z,62.89
2018-06-01T02:27:13.947Z,62.98
2018-06-01T02:27:54.521Z,62.79
2018-06-01T02:28:35.134Z,62.98
2018-06-01T02:29:15.672Z,62.89
2018-06-01T02:29:56.213Z,62.98
2018-06-01T02:30:36.746Z,62.89
2018-06-01T02:31:17.310Z,62.98
2018-06-01T02:31:57.887Z,62.98
2018-06-01T02:32:38.465Z,62.89
2018-06-01T02:33:19.035Z,62.79
2018-06-01T02:34:00.231Z,62.95
2018-06-01T02:34:40.129Z,62.79
2018-06-01T02:35:20.708Z,63.08
2018-06-01T02:36:01.294Z,63.08
2018-06-01T02:36:41.887Z,62.79
2018-06-01T02:37:22.488Z,62.98
2018-06-01T02:38:03.048Z,62.79
2018-06-01T02:38:43.612Z,62.6
2018-06-01T02:39:24.235Z,62.79
2018-06-01T02:40:04.833Z,62.76
2018-06-01T02:40:45.405Z,62.89
2018-06-01T02:41:25.972Z,62.79
2018-06-01T02:42:06.560Z,62.66
2018-06-01T02:42:47.132Z,62.89
2018-06-01T02:43:27.700Z,62.76
2018-06-01T02:44:08.277Z,63.37
2018-06-01T02:44:48.835Z,62.86
2018-06-01T02:45:29.417Z,63.18
2018-06-01T02:46:09.987Z,62.79
2018-06-01T02:46:50.587Z,62.79
2018-06-01T02:47:31.152Z,62.66
2018-06-01T02:48:11.711Z,62.86
2018-06-01T02:48:52.300Z,63.24
2018-06-01T02:49:32.848Z,63.15
2018-06-01T02:50:13.385Z,63.05
2018-06-01T02:50:53.952Z,62.86
2018-06-01T02:51:34.515Z,63.37
2018-06-01T02:52:15.076Z,62.76
2018-06-01T02:52:55.644Z,63.34
2018-06-01T02:53:36.213Z,62.76
2018-06-01T02:54:16.765Z,62.76
2018-06-01T02:54:57.318Z,62.6
2018-06-01T02:55:37.885Z,62.76
2018-06-01T02:56:18.445Z,63.24
2018-06-01T02:56:59.015Z,62.76
2018-06-01T02:57:39.599Z,62.66
2018-06-01T02:58:20.153Z,62.86
2018-06-01T02:59:00.695Z,62.86
2018-06-01T02:59:41.294Z,62.57
2018-06-01T03:00:21.856Z,62.76
2018-06-01T03:01:02.412Z,62.86
2018-06-01T03:01:42.970Z,62.95
2018-06-01T03:02:23.577Z,62.86
2018-06-01T03:03:04.139Z,62.66
2018-06-01T03:03:44.696Z,63.05
2018-06-01T03:04:25.233Z,62.95
2018-06-01T03:05:05.782Z,63.05
2018-06-01T03:05:46.343Z,63.05
2018-06-01T03:06:26.939Z,63.05
2018-06-01T03:07:07.463Z,63.05
2018-06-01T03:07:48.040Z,63.05
2018-06-01T03:08:28.588Z,63.05
2018-06-01T03:09:09.150Z,62.95
2018-06-01T03:09:49.705Z,62.86
2018-06-01T03:10:30.299Z,62.66
2018-06-01T03:11:10.886Z,62.86
2018-06-01T03:11:51.458Z,62.76
2018-06-01T03:12:31.974Z,62.86
2018-06-01T03:13:12.524Z,62.86
2018-06-01T03:13:53.073Z,62.66
2018-06-01T03:14:33.639Z,62.95
2018-06-01T03:15:14.204Z,62.57
2018-06-01T03:15:54.753Z,62.66
2018-06-01T03:16:35.311Z,62.66
2018-06-01T03:17:15.873Z,62.57
2018-06-01T03:17:56.462Z,62.66
2018-06-01T03:18:37.009Z,63.05
2018-06-01T03:19:17.535Z,63.05
2018-06-01T03:19:58.088Z,62.86
2018-06-01T03:20:38.651Z,62.95
2018-06-01T03:21:19.192Z,62.66
2018-06-01T03:21:59.726Z,62.95
2018-06-01T03:22:40.335Z,62.76
2018-06-01T03:23:21.748Z,62.76
2018-06-01T03:24:01.488Z,63.05
2018-06-01T03:24:42.011Z,62.76
2018-06-01T03:25:22.574Z,62.95
2018-06-01T03:26:03.144Z,63.05
2018-06-01T03:26:43.671Z,62.95
2018-06-01T03:27:24.213Z,62.66
2018-06-01T03:28:04.748Z,62.86
2018-06-01T03:28:45.335Z,62.86
2018-06-01T03:29:25.853Z,63.24
2018-06-01T03:30:06.433Z,62.76
2018-06-01T03:30:46.978Z,62.76
2018-06-01T03:31:27.552Z,63.05
2018-06-01T03:32:08.130Z,62.95
2018-06-01T03:32:48.688Z,62.86
2018-06-01T03:33:29.237Z,62.95
2018-06-01T03:34:09.773Z,62.76
2018-06-01T03:34:50.344Z,62.76
2018-06-01T03:35:30.940Z,62.47
2018-06-01T03:36:11.496Z,62.86
2018-06-01T03:36:52.061Z,62.86
2018-06-01T03:37:32.616Z,62.57
2018-06-01T03:38:13.161Z,62.66
2018-06-01T03:38:53.766Z,62.57
2018-06-01T03:39:34.317Z,62.76
2018-06-01T03:40:14.888Z,62.86
2018-06-01T03:40:55.455Z,63.43
2018-06-01T03:41:36.045Z,63.34
2018-06-01T03:42:16.597Z,63.05
2018-06-01T03:42:57.138Z,62.86
2018-06-01T03:43:37.669Z,62.95
2018-06-01T03:44:18.241Z,62.95
2018-06-01T03:44:58.822Z,63.15
2018-06-01T03:45:39.381Z,63.24
2018-06-01T03:46:19.971Z,62.95
2018-06-01T03:47:00.468Z,63.43
2018-06-01T03:47:41.058Z,63.05
2018-06-01T03:48:21.602Z,62.76
2018-06-01T03:49:02.167Z,62.86
2018-06-01T03:49:42.675Z,62.86
2018-06-01T03:50:23.244Z,62.57
2018-06-01T03:51:03.787Z,63.05
2018-06-01T03:51:44.342Z,63.34
2018-06-01T03:52:24.868Z,63.43
2018-06-01T03:53:05.439Z,62.95
2018-06-01T03:53:45.974Z,62.95
2018-06-01T03:54:26.566Z,63.34
2018-06-01T03:55:07.087Z,63.24
2018-06-01T03:55:47.648Z,63.34
2018-06-01T03:56:28.201Z,63.05
2018-06-01T03:57:08.752Z,63.05
2018-06-01T03:57:49.287Z,63.43
2018-06-01T03:58:29.830Z,63.05
2018-06-01T03:59:10.379Z,62.86
2018-06-01T03:59:50.945Z,62.95
2018-06-01T04:00:31.490Z,62.76
2018-06-01T04:01:12.041Z,62.57
2018-06-01T04:01:52.587Z,62.76
2018-06-01T04:02:33.145Z,63.15
2018-06-01T04:03:13.702Z,62.76
2018-06-01T04:03:54.281Z,62.76
2018-06-01T04:04:34.841Z,62.86
2018-06-01T04:05:15.401Z,62.95
2018-06-01T04:05:55.953Z,63.24
2018-06-01T04:06:36.521Z,62.76
2018-06-01T04:07:17.095Z,62.47
2018-06-01T04:07:57.674Z,62.66
2018-06-01T04:08:38.233Z,62.95
2018-06-01T04:09:18.782Z,63.15
2018-06-01T04:09:59.388Z,62.95
2018-06-01T04:10:39.996Z,62.86
2018-06-01T04:11:20.563Z,62.76
2018-06-01T04:12:01.216Z,62.66
2018-06-01T04:12:41.791Z,62.86
2018-06-01T04:13:22.497Z,62.86
2018-06-01T04:14:03.151Z,62.66
2018-06-01T04:14:43.819Z,63.15
2018-06-01T04:15:24.400Z,62.95
2018-06-01T04:16:06.263Z,62.76
2018-06-01T04:16:46.906Z,62.95
2018-06-01T04:17:27.615Z,62.89
2018-06-01T04:18:08.316Z,62.86
2018-06-01T04:18:49.218Z,62.66
2018-06-01T04:19:29.979Z,62.57
2018-06-01T04:20:10.942Z,62.21
2018-06-01T04:20:51.494Z,62.21
2018-06-01T04:21:32.047Z,62.4
2018-06-01T04:22:12.702Z,62.21
2018-06-01T04:22:53.366Z,62.5
2018-06-01T04:23:34.205Z,62.21
2018-06-01T04:24:14.918Z,62.12
2018-06-01T04:24:55.461Z,62.4
2018-06-01T04:25:36.032Z,62.31
2018-06-01T04:26:17.467Z,62.5
2018-06-01T04:26:58.006Z,61.92
2018-06-01T04:27:38.585Z,61.83
2018-06-01T04:28:19.091Z,62.5
2018-06-01T04:28:59.669Z,61.63
2018-06-01T04:29:40.211Z,61.92
2018-06-01T04:30:20.766Z,61.73
2018-06-01T04:31:01.317Z,62.21
2018-06-01T04:31:41.918Z,61.63
2018-06-01T04:32:22.473Z,61.54
2018-06-01T04:33:03.024Z,61.54
2018-06-01T04:33:43.639Z,61.05
2018-06-01T04:34:24.225Z,61.25
2018-06-01T04:35:04.830Z,61.34
2018-06-01T04:35:45.378Z,61.15
2018-06-01T04:36:25.981Z,61.92
2018-06-01T04:37:06.577Z,61.73
2018-06-01T04:37:47.160Z,61.6
2018-06-01T04:38:27.982Z,61.83
2018-06-01T04:39:08.895Z,61.8
2018-06-01T04:39:49.763Z,61.63
2018-06-01T04:40:30.923Z,61.63
2018-06-01T04:41:11.461Z,61.7
2018-06-01T04:41:52.179Z,61.73
2018-06-01T04:42:32.859Z,62.21
2018-06-01T04:43:13.577Z,62.18
2018-06-01T04:43:54.127Z,62.21
2018-06-01T04:44:34.681Z,61.73
2018-06-01T04:45:15.265Z,61.73
2018-06-01T04:45:55.798Z,62.12
2018-06-01T04:46:36.400Z,61.63
2018-06-01T04:47:17.021Z,61.89
2018-06-01T04:47:57.599Z,61.7
2018-06-01T04:48:38.159Z,61.73
2018-06-01T04:49:18.990Z,61.7
2018-06-01T04:49:59.948Z,62.12
2018-06-01T04:50:40.499Z,61.6
2018-06-01T04:51:21.258Z,61.73
2018-06-01T04:52:02.212Z,61.54
2018-06-01T04:52:42.775Z,62.02
2018-06-01T04:53:23.461Z,62.5
2018-06-01T04:54:04.032Z,62.18
2018-06-01T04:54:44.639Z,62.4
2018-06-01T04:55:25.310Z,62.21
2018-06-01T04:56:05.927Z,62.31
2018-06-01T04:56:46.424Z,62.12
2018-06-01T04:57:27.312Z,62.21
2018-06-01T04:58:08.146Z,62.6
2018-06-01T04:58:48.702Z,62.7
2018-06-01T04:59:29.258Z,62.31
2018-06-01T05:00:09.815Z,62.31
2018-06-01T05:00:50.348Z,62.21
2018-06-01T05:01:30.910Z,61.73
2018-06-01T05:02:11.487Z,61.63
2018-06-01T05:02:52.263Z,61.63
2018-06-01T05:03:32.925Z,61.73
2018-06-01T05:04:13.474Z,61.73
2018-06-01T05:04:54.053Z,61.83
2018-06-01T05:05:34.678Z,62.21
2018-06-01T05:06:15.230Z,61.92
2018-06-01T05:06:55.774Z,61.73
2018-06-01T05:07:36.344Z,62.02
2018-06-01T05:08:16.895Z,61.63
2018-06-01T05:08:57.467Z,61.83
2018-06-01T05:09:38.046Z,61.63
2018-06-01T05:10:18.594Z,61.63
2018-06-01T05:10:59.149Z,61.73
2018-06-01T05:11:39.723Z,62.21
2018-06-01T05:12:20.472Z,62.31
2018-06-01T05:13:01.053Z,61.73
2018-06-01T05:13:41.603Z,61.92
2018-06-01T05:14:22.149Z,61.73
2018-06-01T05:15:02.702Z,61.73
2018-06-01T05:15:43.255Z,61.44
2018-06-01T05:16:23.804Z,60.96
2018-06-01T05:17:04.363Z,61.34
2018-06-01T05:17:44.932Z,61.83
2018-06-01T05:18:25.480Z,61.73
2018-06-01T05:19:06.016Z,61.25
2018-06-01T05:19:46.585Z,61.54
2018-06-01T05:20:27.139Z,61.37
2018-06-01T05:21:07.693Z,60.96
2018-06-01T05:21:48.252Z,60.76
2018-06-01T05:22:28.835Z,60.79
2018-06-01T05:23:09.439Z,61.05
2018-06-01T05:23:50.010Z,61.18
2018-06-01T05:24:30.542Z,60.79
2018-06-01T05:25:11.092Z,60.89
2018-06-01T05:25:51.658Z,60.6
2018-06-01T05:26:32.206Z,60.89
2018-06-01T05:27:12.738Z,60.31
2018-06-01T05:27:53.285Z,60.02
2018-06-01T05:28:33.826Z,60.34
2018-06-01T05:29:14.392Z,60.24
2018-06-01T05:29:54.939Z,60.05
2018-06-01T05:30:35.638Z,60.05
2018-06-01T05:31:16.232Z,59.66
2018-06-01T05:31:56.812Z,59.47
2018-06-01T05:32:37.373Z,59.47
2018-06-01T05:33:17.922Z,58.98
2018-06-01T05:33:58.466Z,59.4
2018-06-01T05:34:39.019Z,59.11
2018-06-01T05:35:19.544Z,59.11
2018-06-01T05:36:00.121Z,59.21
2018-06-01T05:36:40.664Z,60.08
2018-06-01T05:37:21.195Z,58.72
2018-06-01T05:38:01.768Z,58.95
2018-06-01T05:38:42.351Z,58.75
2018-06-01T05:39:22.906Z,58.37
2018-06-01T05:40:03.521Z,57.69
2018-06-01T05:40:44.279Z,57.69
2018-06-01T05:41:24.807Z,57.88
2018-06-01T05:42:05.463Z,57.59
2018-06-01T05:42:46.157Z,57.69
2018-06-01T05:43:26.868Z,58.65
2018-06-01T05:44:07.458Z,57.62
2018-06-01T05:44:48.033Z,57.01
2018-06-01T05:45:28.626Z,56.65
2018-06-01T05:46:09.287Z,56.75
2018-06-01T05:46:49.930Z,56.56
2018-06-01T05:47:30.490Z,56.75
2018-06-01T05:48:11.042Z,56.65
2018-06-01T05:48:51.592Z,56.75
2018-06-01T05:49:32.150Z,57.04
2018-06-01T05:50:12.765Z,56.75
2018-06-01T05:50:53.350Z,55.71
2018-06-01T05:51:33.932Z,55.71
2018-06-01T05:52:14.471Z,55.32
2018-06-01T05:52:55.076Z,55.22
2018-06-01T05:53:35.669Z,55.62
2018-06-01T05:54:16.209Z,55.52
2018-06-01T05:54:56.762Z,55.13
2018-06-01T05:55:37.411Z,55.13
2018-06-01T05:56:17.961Z,55.42
2018-06-01T05:56:58.510Z,54.84
2018-06-01T05:57:39.152Z,54.84
2018-06-01T05:58:19.711Z,55.22
2018-06-01T05:59:00.324Z,55.22
2018-06-01T05:59:41.820Z,55.22
2018-06-01T06:00:21.552Z,55.04
2018-06-01T06:01:02.110Z,54.86
2018-06-01T06:01:42.703Z,54.77
2018-06-01T06:02:23.331Z,54.58
2018-06-01T06:03:03.937Z,54.28
2018-06-01T06:03:44.495Z,54.28
2018-06-01T06:04:25.170Z,54.58
2018-06-01T06:05:05.730Z,54.58
2018-06-01T06:05:46.465Z,54.67
2018-06-01T06:06:27.015Z,54.77
2018-06-01T06:07:07.578Z,54.19
2018-06-01T06:07:48.161Z,54.38
2018-06-01T06:08:28.751Z,54.19
2018-06-01T06:09:09.488Z,53.99
2018-06-01T06:09:50.057Z,53.8
2018-06-01T06:10:30.634Z,53.89
2018-06-01T06:11:11.255Z,53.51
2018-06-01T06:11:51.875Z,53.83
2018-06-01T06:12:32.468Z,53.53
2018-06-01T06:13:13.065Z,53.53
2018-06-01T06:13:53.630Z,53.83
2018-06-01T06:14:34.172Z,53.83
2018-06-01T06:15:14.798Z,53.92
2018-06-01T06:15:55.403Z,53.83
2018-06-01T06:16:35.984Z,53.73
2018-06-01T06:17:16.574Z,53.47
2018-06-01T06:17:57.400Z,53.75
2018-06-01T06:18:38.350Z,53.47
2018-06-01T06:19:18.819Z,53.66
2018-06-01T06:19:59.550Z,53.37
2018-06-01T06:20:40.180Z,52.69
2018-06-01T06:21:20.759Z,51.91
2018-06-01T06:22:01.378Z,51.84
2018-06-01T06:22:41.929Z,52.23
2018-06-01T06:23:22.558Z,51.84
2018-06-01T06:24:03.114Z,52.03
2018-06-01T06:24:43.659Z,51.75
2018-06-01T06:25:24.245Z,52.62
2018-06-01T06:26:04.811Z,52.13
2018-06-01T06:26:45.426Z,52.03
2018-06-01T06:27:25.972Z,51.93
2018-06-01T06:28:06.574Z,51.55
2018-06-01T06:28:47.189Z,51.26
2018-06-01T06:29:27.820Z,51.75
2018-06-01T06:30:08.915Z,51.93
2018-06-01T06:30:49.467Z,52.72
2018-06-01T06:31:30.119Z,51.45
2018-06-01T06:32:11.185Z,51.09
2018-06-01T06:32:52.430Z,51.09
2018-06-01T06:33:32.421Z,50.51
2018-06-01T06:34:12.980Z,50.8
2018-06-01T06:34:53.631Z,51.18
2018-06-01T06:35:34.238Z,50.41
2018-06-01T06:36:14.818Z,50.7
2018-06-01T06:36:55.681Z,51.09
2018-06-01T06:37:36.342Z,50.51
2018-06-01T06:38:16.857Z,50.21
2018-06-01T06:38:57.852Z,50.7
2018-06-01T06:39:38.491Z,50.8
2018-06-01T06:40:19.049Z,51.09
2018-06-01T06:40:59.751Z,51.67
2018-06-01T06:41:40.345Z,51.09
2018-06-01T06:42:21.098Z,50.51
2018-06-01T06:43:01.655Z,50.7
2018-06-01T06:43:42.345Z,50.99
2018-06-01T06:44:22.910Z,50.89
2018-06-01T06:45:03.669Z,50.31
2018-06-01T06:45:44.428Z,51.09
2018-06-01T06:46:25.509Z,50.8
2018-06-01T06:47:05.931Z,50.7
2018-06-01T06:47:46.663Z,51.57
2018-06-01T06:48:27.164Z,51.09
2018-06-01T06:49:07.755Z,51.11
2018-06-01T06:49:48.355Z,50.24
2018-06-01T06:50:28.998Z,50.14
2018-06-01T06:51:09.553Z,49.76
2018-06-01T06:51:50.138Z,49.95
2018-06-01T06:52:30.694Z,50.92
2018-06-01T06:53:11.252Z,51.21
2018-06-01T06:53:51.967Z,51.4
2018-06-01T06:54:32.558Z,49.95
2018-06-01T06:55:13.179Z,50.36
2018-06-01T06:55:53.759Z,49.85
2018-06-01T06:56:34.387Z,49.66
2018-06-01T06:57:14.951Z,50.43
2018-06-01T06:57:55.850Z,49.76
2018-06-01T06:58:36.938Z,50.36
2018-06-01T06:59:17.375Z,50.26
2018-06-01T06:59:57.984Z,49.97
2018-06-01T07:00:38.536Z,50.07
2018-06-01T07:01:19.101Z,49.68
2018-06-01T07:01:59.700Z,49.78
2018-06-01T07:02:40.326Z,49
2018-06-01T07:03:21.651Z,49.29
2018-06-01T07:04:02.156Z,49.97
2018-06-01T07:04:42.740Z,50.16
2018-06-01T07:05:23.312Z,48.8
2018-06-01T07:06:03.879Z,50.07
2018-06-01T07:06:44.457Z,50.07
2018-06-01T07:07:25.036Z,49.71
2018-06-01T07:08:05.616Z,49.32
2018-06-01T07:08:46.193Z,49.02
2018-06-01T07:09:26.747Z,48.83
2018-06-01T07:10:07.312Z,48.83
2018-06-01T07:10:47.880Z,48.83
2018-06-01T07:11:28.453Z,48.15
2018-06-01T07:12:09.014Z,49.02
2018-06-01T07:12:49.581Z,48.15
2018-06-01T07:13:30.124Z,47.76
2018-06-01T07:14:10.709Z,48.15
2018-06-01T07:14:51.272Z,48.07
2018-06-01T07:15:31.860Z,48.44
2018-06-01T07:16:12.434Z,47.66
2018-06-01T07:16:52.985Z,48.25
2018-06-01T07:17:33.527Z,47.96
2018-06-01T07:18:14.135Z,48.44
2018-06-01T07:18:54.635Z,48.05
2018-06-01T07:19:35.199Z,48.25
2018-06-01T07:20:15.765Z,48.71
2018-06-01T07:20:56.284Z,48.8
2018-06-01T07:21:36.881Z,48.61
2018-06-01T07:22:17.458Z,48.8
2018-06-01T07:22:58.006Z,49.58
2018-06-01T07:23:38.590Z,49.39
2018-06-01T07:24:19.159Z,49.19
2018-06-01T07:24:59.720Z,49.58
2018-06-01T07:25:40.298Z,49.39
2018-06-01T07:26:20.881Z,49.68
2018-06-01T07:27:01.479Z,49.29
2018-06-01T07:27:42.062Z,49.49
2018-06-01T07:28:22.612Z,49.19
2018-06-01T07:29:03.192Z,48.9
2018-06-01T07:29:43.749Z,49.97
2018-06-01T07:30:24.331Z,50.07
2018-06-01T07:31:04.918Z,50.46
2018-06-01T07:31:45.497Z,50.16
2018-06-01T07:32:26.070Z,49.87
2018-06-01T07:33:06.637Z,49.68
2018-06-01T07:33:47.197Z,49.68
2018-06-01T07:34:27.759Z,49.51
2018-06-01T07:35:08.322Z,49.22
2018-06-01T07:35:48.923Z,49.99
2018-06-01T07:36:29.508Z,48.73
2018-06-01T07:37:10.087Z,48.25
2018-06-01T07:37:50.661Z,48.83
2018-06-01T07:38:31.212Z,48.54
2018-06-01T07:39:11.808Z,49.41
2018-06-01T07:39:52.370Z,48.73
2018-06-01T07:40:32.941Z,48.73
2018-06-01T07:41:13.506Z,49.15
2018-06-01T07:41:54.108Z,48.95
2018-06-01T07:42:34.695Z,48.25
2018-06-01T07:43:15.264Z,48.17
2018-06-01T07:43:55.835Z,47.88
2018-06-01T07:44:36.418Z,48.07
2018-06-01T07:45:17.055Z,47.98
2018-06-01T07:45:57.583Z,47.59
2018-06-01T07:46:38.142Z,47.78
2018-06-01T07:47:18.718Z,48.19
2018-06-01T07:47:59.316Z,48.88
2018-06-01T07:48:39.890Z,48.29
2018-06-01T07:49:20.434Z,48.58
2018-06-01T07:50:01.043Z,48.29
2018-06-01T07:50:41.619Z,47.52
2018-06-01T07:51:22.179Z,46.93
2018-06-01T07:52:02.751Z,46.54
2018-06-01T07:52:43.325Z,46.44
2018-06-01T07:53:23.926Z,46.25
2018-06-01T07:54:04.496Z,46.34
2018-06-01T07:54:45.043Z,47.22
2018-06-01T07:55:25.637Z,47.03
2018-06-01T07:56:06.222Z,46.93
2018-06-01T07:56:46.886Z,46.93
2018-06-01T07:57:27.423Z,47.03
2018-06-01T07:58:07.991Z,47.49
2018-06-01T07:58:48.552Z,47.61
2018-06-01T07:59:29.161Z,47.9
2018-06-01T08:00:09.715Z,48.07
2018-06-01T08:00:50.275Z,48.56
2018-06-01T08:01:30.868Z,48.17
2018-06-01T08:02:11.452Z,48.36
2018-06-01T08:02:52.017Z,48.17
2018-06-01T08:03:32.622Z,48.27
2018-06-01T08:04:13.143Z,48.27
2018-06-01T08:04:53.723Z,48.68
2018-06-01T08:05:34.308Z,47.8
2018-06-01T08:06:14.935Z,47.9
2018-06-01T08:06:55.501Z,47.52
2018-06-01T08:07:36.075Z,47.03
2018-06-01T08:08:16.655Z,47.03
2018-06-01T08:08:57.252Z,47.03
2018-06-01T08:09:37.820Z,47.2
2018-06-01T08:10:18.390Z,47.32
2018-06-01T08:10:58.967Z,47.52
2018-06-01T08:11:39.573Z,46.64
2018-06-01T08:12:20.153Z,47.13
2018-06-01T08:13:00.695Z,46.64
2018-06-01T08:13:41.252Z,47.03
2018-06-01T08:14:21.808Z,47.8
2018-06-01T08:15:02.387Z,47.71
2018-06-01T08:15:42.949Z,47.39
2018-06-01T08:16:23.505Z,48.29
2018-06-01T08:17:04.070Z,47.49
2018-06-01T08:17:44.635Z,47.69
2018-06-01T08:18:25.210Z,47.59
2018-06-01T08:19:05.776Z,48.46
2018-06-01T08:19:46.354Z,47.98
2018-06-01T08:20:26.951Z,48.39
2018-06-01T08:21:07.519Z,47.78
2018-06-01T08:21:48.080Z,47.39
2018-06-01T08:22:28.647Z,47.49
2018-06-01T08:23:09.218Z,47.49
2018-06-01T08:23:49.800Z,46.05
2018-06-01T08:24:30.378Z,46.23
2018-06-01T08:25:10.924Z,47.03
2018-06-01T08:25:51.503Z,47.71
2018-06-01T08:26:32.124Z,47.61
2018-06-01T08:27:12.701Z,48.49
2018-06-01T08:27:53.261Z,47.22
2018-06-01T08:28:33.829Z,46.95
2018-06-01T08:29:14.406Z,46.83
2018-06-01T08:29:54.979Z,47.52
2018-06-01T08:30:35.558Z,47.22
2018-06-01T08:31:16.117Z,46.05
2018-06-01T08:31:56.679Z,46.25
2018-06-01T08:32:37.254Z,46.34
2018-06-01T08:33:17.851Z,46.15
2018-06-01T08:33:58.400Z,46.54
2018-06-01T08:34:38.981Z,47.52
2018-06-01T08:35:19.556Z,46.05
2018-06-01T08:36:00.141Z,45.67
2018-06-01T08:36:40.691Z,46.44
2018-06-01T08:37:21.255Z,46.25
2018-06-01T08:38:01.814Z,47.13
2018-06-01T08:38:42.382Z,47.22
2018-06-01T08:39:22.991Z,47.32
2018-06-01T08:40:03.538Z,47.61
2018-06-01T08:40:44.110Z,47.8
2018-06-01T08:41:24.672Z,48.29
2018-06-01T08:42:05.247Z,48.22
2018-06-01T08:42:45.843Z,48.22
2018-06-01T08:43:26.416Z,48.71
2018-06-01T08:44:07.000Z,49.19